PWSweather.com
Personal Weather Stations
Station Observations
WISCHPK61
Green Bay Schmitt Park, Green Bay, WI 54311

Green Bay Schmitt ParkGreen Bay, WI 54311

Lat: 44.514277, Lon: -87.935067

Elevation: 735

Station Type: Acu Rite Pro Weather Center model 02032C

http://greenbayweathercam.com

High Low Average
Temperature 30.9°F-0.6°C 16.2°F-8.8°C 21.4°F-5.9°C
Dew Point 30.0°F-1.1°C 15.7°F-9.1°C 21.0°F-6.1°C
Winds Calm Calm Calm Calm Calm WSWCalm WSW
Wind Gusts -- -- --
Humidity 99% 95% 98%
Pressure 29.14 in986.8 mb 28.87 in977.7 mb -
Precipitation 0.00 in0.0 mm - -
Hour Temp Dew Point Humidity Winds Wind Gusts Pressure Precip Precip Rate Daily Precip Total
12:00 AM 16.9°F-8.4°C 16.7°F-8.5°C 99% Calm Calm -- 28.85 in977.0 mb - 0.00 in0.0 mm 0.00 in0.0 mm
01:00 AM 16.2°F-8.8°C 15.7°F-9.1°C 98% Calm Calm -- 28.87 in977.7 mb - 0.00 in0.0 mm 0.00 in0.0 mm
02:00 AM 16.9°F-8.4°C 16.4°F-8.7°C 98% Calm Calm -- 28.89 in978.3 mb - 0.00 in0.0 mm 0.00 in0.0 mm
03:00 AM 18.3°F-7.6°C 18.1°F-7.7°C 99% Calm Calm -- 28.90 in978.7 mb - 0.00 in0.0 mm 0.00 in0.0 mm
04:00 AM 19.9°F-6.7°C 19.4°F-7.0°C 98% Calm Calm -- 28.91 in979.0 mb - 0.00 in0.0 mm 0.00 in0.0 mm
05:00 AM 20.1°F-6.6°C 19.6°F-6.9°C 98% Calm Calm -- 28.94 in980.0 mb - 0.00 in0.0 mm 0.00 in0.0 mm
06:00 AM 19.0°F-7.2°C 18.8°F-7.3°C 99% Calm Calm -- 28.98 in981.4 mb - 0.00 in0.0 mm 0.00 in0.0 mm
07:00 AM 18.7°F-7.4°C 18.5°F-7.5°C 99% Calm Calm -- 28.99 in981.7 mb - 0.00 in0.0 mm 0.00 in0.0 mm
08:00 AM 16.7°F-8.5°C 16.2°F-8.8°C 98% Calm Calm -- 29.02 in982.7 mb - 0.00 in0.0 mm 0.00 in0.0 mm
09:00 AM 16.8°F-8.4°C 16.5°F-8.6°C 99% Calm Calm -- 29.04 in983.4 mb - 0.00 in0.0 mm 0.00 in0.0 mm
10:00 AM 18.5°F-7.5°C 18.3°F-7.6°C 99% Calm Calm -- 29.05 in983.7 mb - 0.00 in0.0 mm 0.00 in0.0 mm
11:00 AM 21.2°F-6.0°C 20.0°F-6.7°C 95% Calm Calm -- 29.07 in984.4 mb - 0.00 in0.0 mm 0.00 in0.0 mm
12:00 PM 23.2°F-4.9°C 22.7°F-5.2°C 98% Calm Calm -- 29.08 in984.8 mb - 0.00 in0.0 mm 0.00 in0.0 mm
01:00 PM 27.1°F-2.7°C 26.9°F-2.8°C 99% Calm Calm -- 29.09 in985.1 mb - 0.00 in0.0 mm 0.00 in0.0 mm
02:00 PM 30.0°F-1.1°C 29.8°F-1.2°C 99% Calm Calm -- 29.08 in984.8 mb - 0.00 in0.0 mm 0.00 in0.0 mm
03:00 PM 30.9°F-0.6°C 29.6°F-1.3°C 95% Calm Calm -- 29.08 in984.8 mb - 0.00 in0.0 mm 0.00 in0.0 mm
04:00 PM 30.2°F-1.0°C 30.0°F-1.1°C 99% Calm Calm -- 29.09 in985.1 mb - 0.00 in0.0 mm 0.00 in0.0 mm
05:00 PM 28.4°F-2.0°C 28.2°F-2.1°C 99% Calm Calm -- 29.11 in985.8 mb - 0.00 in0.0 mm 0.00 in0.0 mm
06:00 PM 26.2°F-3.2°C 25.7°F-3.5°C 98% Calm Calm -- 29.10 in985.4 mb - 0.00 in0.0 mm 0.00 in0.0 mm
07:00 PM 22.8°F-5.1°C 22.6°F-5.2°C 99% Calm Calm -- 29.12 in986.1 mb - 0.00 in0.0 mm 0.00 in0.0 mm
08:00 PM 20.1°F-6.6°C 19.9°F-6.7°C 99% Calm Calm -- 29.13 in986.5 mb - 0.00 in0.0 mm 0.00 in0.0 mm
09:00 PM 18.3°F-7.6°C 17.8°F-7.9°C 98% Calm Calm -- 29.13 in986.5 mb - 0.00 in0.0 mm 0.00 in0.0 mm
10:00 PM 18.7°F-7.4°C 18.2°F-7.7°C 98% Calm Calm -- 29.12 in986.1 mb - 0.00 in0.0 mm 0.00 in0.0 mm
11:00 PM 18.3°F-7.6°C 18.1°F-7.7°C 99% Calm Calm -- 29.14 in986.8 mb - 0.00 in0.0 mm 0.00 in0.0 mm